Time;durP1;ratioP1;P1;durP2;ratioP2;P2;SDS_P1;SDS_P2;PMS_P1;PMS_P2;Temp;Humidity;BMP_temperature;BMP_pressure;BME280_temperature;BME280_humidity;BME280_pressure;Samples;Min_cycle;Max_cycle;Signal;HPM_P1;HPM_P2
2021/09/11 00:02:04;;;;;;;14.27;12.88;;;18.40;99.90;;;;;;5031391;28;20021;-72
2021/09/11 00:04:30;;;;;;;14.18;12.77;;;18.40;99.90;;;;;;5031054;28;20025;-71
2021/09/11 00:06:57;;;;;;;13.25;11.90;;;18.50;99.90;;;;;;5031444;28;20018;-71
2021/09/11 00:09:23;;;;;;;13.48;12.18;;;18.40;99.90;;;;;;5031457;28;20435;-72
2021/09/11 00:11:48;;;;;;;15.05;13.55;;;18.40;99.90;;;;;;5031415;28;20025;-72
2021/09/11 00:14:14;;;;;;;16.83;14.30;;;18.50;99.90;;;;;;5031136;28;20092;-71
2021/09/11 00:16:41;;;;;;;18.42;16.48;;;18.60;99.90;;;;;;5031162;28;20037;-72
2021/09/11 00:19:06;;;;;;;18.95;16.85;;;18.70;99.90;;;;;;5031515;28;20491;-72
2021/09/11 00:21:32;;;;;;;21.92;17.08;;;18.60;99.90;;;;;;5031385;28;20017;-74
2021/09/11 00:23:58;;;;;;;18.83;16.98;;;18.50;99.90;;;;;;5031355;28;20148;-73
2021/09/11 00:26:23;;;;;;;21.10;18.70;;;18.40;99.90;;;;;;5030721;28;20033;-74
2021/09/11 00:28:50;;;;;;;20.85;18.75;;;18.40;99.90;;;;;;5031566;28;20495;-74
2021/09/11 00:31:16;;;;;;;22.30;19.70;;;18.40;99.90;;;;;;5031121;28;20534;-75
2021/09/11 00:33:42;;;;;;;20.35;18.25;;;18.40;99.90;;;;;;5013680;28;20087;-74
2021/09/11 00:36:08;;;;;;;22.98;20.17;;;18.30;99.90;;;;;;5030834;28;20507;-74
2021/09/11 00:38:33;;;;;;;22.63;20.13;;;18.40;99.90;;;;;;5031257;28;20030;-73
2021/09/11 00:40:59;;;;;;;21.35;19.25;;;18.40;99.90;;;;;;5031308;28;20484;-74
2021/09/11 00:43:26;;;;;;;20.88;18.85;;;18.20;99.90;;;;;;5031197;28;20092;-74
2021/09/11 00:45:52;;;;;;;23.05;20.55;;;18.20;99.90;;;;;;5030121;28;20415;-73
2021/09/11 00:48:18;;;;;;;26.45;21.85;;;18.20;99.90;;;;;;5031158;28;20018;-74
2021/09/11 00:50:45;;;;;;;20.80;18.75;;;18.20;99.90;;;;;;5031165;28;20026;-74
2021/09/11 00:53:13;;;;;;;20.85;18.55;;;18.10;99.90;;;;;;5031171;28;20079;-75
2021/09/11 00:55:41;;;;;;;17.98;16.13;;;18.00;99.90;;;;;;5030419;28;20034;-74
2021/09/11 00:58:07;;;;;;;19.25;17.38;;;18.00;99.90;;;;;;5030867;28;20026;-74
2021/09/11 01:00:32;;;;;;;19.20;17.02;;;18.00;99.90;;;;;;5012900;28;20140;-74
2021/09/11 01:02:58;;;;;;;18.55;16.67;;;17.90;99.90;;;;;;5030970;28;20099;-74
2021/09/11 01:05:24;;;;;;;17.75;16.13;;;17.90;99.90;;;;;;5030278;28;20022;-74
2021/09/11 01:07:49;;;;;;;16.13;14.45;;;17.90;99.90;;;;;;5031006;28;20048;-74
2021/09/11 01:10:16;;;;;;;20.15;16.13;;;17.90;99.90;;;;;;5030760;28;20021;-74
2021/09/11 01:12:42;;;;;;;23.52;17.38;;;17.80;99.90;;;;;;5030907;28;20033;-74
2021/09/11 01:15:10;;;;;;;20.98;18.98;;;18.00;99.90;;;;;;5029944;28;20056;-75
2021/09/11 01:17:39;;;;;;;21.17;18.92;;;18.00;99.90;;;;;;5031036;28;20480;-74
2021/09/11 01:20:06;;;;;;;21.83;19.65;;;17.90;99.90;;;;;;5030913;28;20025;-74
2021/09/11 01:22:31;;;;;;;20.38;18.15;;;18.00;99.90;;;;;;5030979;28;20049;-74
2021/09/11 01:25:06;;;;;;;23.23;20.33;;;17.90;99.90;;;;;;5030642;28;20057;-74
2021/09/11 01:27:32;;;;;;;23.45;20.95;;;17.90;99.90;;;;;;5033325;28;20498;-74
2021/09/11 01:30:05;;;;;;;23.30;21.00;;;17.90;99.90;;;;;;5034813;28;20483;-75
2021/09/11 01:32:32;;;;;;;23.13;20.73;;;17.90;99.90;;;;;;5035086;28;20108;-75
2021/09/11 01:34:58;;;;;;;23.55;21.20;;;17.90;99.90;;;;;;5083565;22;20114;-74
2021/09/11 01:37:24;;;;;;;22.00;19.45;;;17.70;99.90;;;;;;5046993;28;20482;-74
2021/09/11 01:39:50;;;;;;;21.38;19.23;;;17.70;99.90;;;;;;5033707;28;20089;-73
2021/09/11 01:42:26;;;;;;;23.55;21.10;;;17.70;99.90;;;;;;5034259;28;20017;-74
2021/09/11 01:44:56;;;;;;;21.70;19.52;;;17.70;99.90;;;;;;5033638;28;20407;-75
2021/09/11 01:47:22;;;;;;;21.13;18.35;;;17.80;99.90;;;;;;5034310;28;20026;-74
2021/09/11 01:49:48;;;;;;;22.40;20.08;;;17.70;99.90;;;;;;5033849;28;20028;-74
2021/09/11 01:52:14;;;;;;;23.52;19.67;;;17.80;99.90;;;;;;5034103;28;20056;-75
2021/09/11 01:54:41;;;;;;;22.88;18.83;;;17.70;99.90;;;;;;5033214;28;20057;-74
2021/09/11 01:57:08;;;;;;;18.85;16.88;;;17.70;99.90;;;;;;5033967;28;20412;-73
2021/09/11 01:59:34;;;;;;;17.23;15.45;;;17.60;99.90;;;;;;5034679;28;20416;-73
2021/09/11 02:02:01;;;;;;;19.17;17.27;;;17.50;99.90;;;;;;5034145;28;20104;-73
2021/09/11 02:04:26;;;;;;;20.10;18.10;;;17.60;99.90;;;;;;5032215;28;20387;-74
2021/09/11 02:06:52;;;;;;;18.63;16.73;;;17.70;99.90;;;;;;5050074;28;20025;-73
2021/09/11 02:09:18;;;;;;;19.30;16.55;;;17.70;99.90;;;;;;5052548;28;20021;-73
2021/09/11 02:11:44;;;;;;;19.38;17.42;;;17.70;99.90;;;;;;5051511;28;20406;-74
2021/09/11 02:14:09;;;;;;;19.65;17.65;;;17.70;99.90;;;;;;5053378;28;20103;-75
2021/09/11 02:16:35;;;;;;;19.10;17.23;;;17.70;99.90;;;;;;5048952;28;20128;-74
2021/09/11 02:19:01;;;;;;;19.67;17.80;;;17.80;99.90;;;;;;5052446;28;20033;-74
2021/09/11 02:21:27;;;;;;;21.77;17.70;;;17.70;99.90;;;;;;5052140;28;20391;-74
2021/09/11 02:23:52;;;;;;;17.60;15.82;;;17.80;99.90;;;;;;5052159;28;20051;-74
2021/09/11 02:26:18;;;;;;;18.02;16.23;;;17.70;99.90;;;;;;5051746;28;20021;-73
2021/09/11 02:28:44;;;;;;;17.40;15.80;;;17.70;99.90;;;;;;5052114;28;20059;-74
2021/09/11 02:31:10;;;;;;;18.70;16.65;;;17.70;99.90;;;;;;5051088;28;20029;-74
2021/09/11 02:33:38;;;;;;;17.02;15.30;;;17.80;99.90;;;;;;5061487;28;20024;-74
2021/09/11 02:36:04;;;;;;;19.25;17.25;;;17.90;99.90;;;;;;5059656;28;20497;-74
2021/09/11 02:38:30;;;;;;;17.23;15.48;;;18.00;99.90;;;;;;5051931;28;20029;-75
2021/09/11 02:40:55;;;;;;;18.00;16.13;;;17.90;99.90;;;;;;5051833;28;20356;-74
2021/09/11 02:43:21;;;;;;;17.75;15.35;;;17.90;99.90;;;;;;5052841;28;20029;-74
2021/09/11 02:45:47;;;;;;;19.10;16.58;;;17.90;99.90;;;;;;5051939;28;20099;-74
2021/09/11 02:48:12;;;;;;;19.92;17.73;;;17.90;99.90;;;;;;5052216;28;20033;-74
2021/09/11 02:50:38;;;;;;;18.80;16.80;;;18.00;99.90;;;;;;5052049;28;20032;-75
2021/09/11 02:53:04;;;;;;;18.05;16.30;;;18.00;99.90;;;;;;5051817;28;20490;-74
2021/09/11 02:55:29;;;;;;;19.67;16.10;;;17.90;99.90;;;;;;5051154;28;20083;-74
2021/09/11 02:57:55;;;;;;;16.55;15.05;;;18.00;99.90;;;;;;5051691;28;20498;-74
2021/09/11 03:00:20;;;;;;;17.55;14.95;;;17.90;99.90;;;;;;5051478;28;20033;-74
2021/09/11 03:02:46;;;;;;;15.82;14.07;;;17.80;99.90;;;;;;5052236;28;20072;-74
2021/09/11 03:05:12;;;;;;;16.02;14.52;;;17.80;99.90;;;;;;5051414;28;20061;-74
2021/09/11 03:07:37;;;;;;;16.98;15.27;;;17.80;99.90;;;;;;5052339;28;20107;-74
2021/09/11 03:10:04;;;;;;;15.60;14.02;;;17.90;99.90;;;;;;5052302;28;20108;-74
2021/09/11 03:12:30;;;;;;;16.25;14.60;;;17.80;99.90;;;;;;5052226;28;20027;-74
2021/09/11 03:14:55;;;;;;;19.13;14.60;;;17.80;99.90;;;;;;5051396;28;20028;-74
2021/09/11 03:17:21;;;;;;;16.90;15.20;;;17.80;99.90;;;;;;5052213;28;20478;-74
2021/09/11 03:19:47;;;;;;;15.30;13.10;;;17.80;99.90;;;;;;5052091;28;20438;-74
2021/09/11 03:22:12;;;;;;;13.77;12.45;;;17.70;99.90;;;;;;5051788;28;20448;-74
2021/09/11 03:24:38;;;;;;;12.13;10.82;;;17.80;99.90;;;;;;5051271;28;20165;-73
2021/09/11 03:27:04;;;;;;;12.73;11.25;;;17.80;99.90;;;;;;5051752;28;20013;-73
2021/09/11 03:29:30;;;;;;;11.98;10.25;;;17.80;99.90;;;;;;5051712;28;20067;-73
2021/09/11 03:31:55;;;;;;;11.85;10.77;;;17.50;99.90;;;;;;5052132;28;20065;-73
2021/09/11 03:34:21;;;;;;;11.68;10.25;;;17.40;99.90;;;;;;5051277;28;20033;-74
2021/09/11 03:36:47;;;;;;;11.32;9.90;;;17.50;99.90;;;;;;5051305;28;20520;-74
2021/09/11 03:39:12;;;;;;;12.43;11.10;;;17.50;99.90;;;;;;5051610;28;20033;-74
2021/09/11 03:41:38;;;;;;;9.90;8.90;;;17.40;99.90;;;;;;5050484;28;20024;-73
2021/09/11 03:44:04;;;;;;;9.63;8.68;;;17.40;99.90;;;;;;5051889;28;20103;-74
2021/09/11 03:46:29;;;;;;;9.60;8.70;;;17.40;99.90;;;;;;5050759;28;20094;-74
2021/09/11 03:48:55;;;;;;;11.32;9.25;;;17.40;99.90;;;;;;5051613;28;20515;-73
2021/09/11 03:51:21;;;;;;;9.63;8.63;;;17.40;99.90;;;;;;5051080;28;20037;-74
2021/09/11 03:53:46;;;;;;;10.35;9.27;;;17.40;99.90;;;;;;5051655;28;20372;-74
2021/09/11 03:56:12;;;;;;;11.27;10.20;;;17.50;99.90;;;;;;5051018;28;20052;-74
2021/09/11 03:58:38;;;;;;;11.55;10.35;;;17.60;99.90;;;;;;5051718;28;20104;-74
2021/09/11 04:01:04;;;;;;;12.02;10.48;;;17.60;99.90;;;;;;5051530;28;20020;-75
2021/09/11 04:03:31;;;;;;;10.15;9.15;;;17.70;99.90;;;;;;5051875;28;20100;-74
2021/09/11 04:05:57;;;;;;;12.73;10.38;;;17.70;99.90;;;;;;5050366;28;20017;-74
2021/09/11 04:08:24;;;;;;;11.75;10.70;;;17.70;99.90;;;;;;5051299;28;20036;-74
2021/09/11 04:10:49;;;;;;;10.98;9.85;;;17.80;99.90;;;;;;5050233;28;20406;-73
2021/09/11 04:13:15;;;;;;;10.32;9.32;;;17.70;99.90;;;;;;5051276;28;20029;-74
2021/09/11 04:15:41;;;;;;;9.07;8.27;;;17.60;99.90;;;;;;5050475;28;20029;-74
2021/09/11 04:18:06;;;;;;;9.18;8.38;;;17.60;99.90;;;;;;5051160;28;20021;-74
2021/09/11 04:20:32;;;;;;;10.13;9.05;;;17.50;99.90;;;;;;5050923;28;20163;-74
2021/09/11 04:22:57;;;;;;;10.05;9.15;;;17.50;99.90;;;;;;5051230;28;20017;-74
2021/09/11 04:25:23;;;;;;;10.18;9.07;;;17.60;99.90;;;;;;5050513;28;20498;-73
2021/09/11 04:27:49;;;;;;;10.30;9.40;;;17.70;99.90;;;;;;5051134;28;20048;-73
2021/09/11 04:30:14;;;;;;;13.18;9.20;;;17.60;99.90;;;;;;5051186;28;20033;-73
2021/09/11 04:32:40;;;;;;;11.40;10.30;;;17.70;99.90;;;;;;5051431;28;20029;-73
2021/09/11 04:35:06;;;;;;;10.68;9.68;;;17.70;99.90;;;;;;5050032;28;20435;-74
2021/09/11 04:37:32;;;;;;;10.25;9.25;;;17.70;99.90;;;;;;5051149;28;20027;-73
2021/09/11 04:39:59;;;;;;;10.52;9.40;;;17.60;99.90;;;;;;5051091;28;20029;-73
2021/09/11 04:42:24;;;;;;;10.93;9.85;;;17.50;99.90;;;;;;5041715;28;20031;-77
2021/09/11 04:44:50;;;;;;;10.75;9.68;;;17.40;99.90;;;;;;5046642;28;20111;-76
2021/09/11 04:47:16;;;;;;;11.20;10.15;;;17.40;99.90;;;;;;5048490;28;20059;-75
2021/09/11 04:49:41;;;;;;;10.65;9.65;;;17.30;99.90;;;;;;5034520;28;20105;-75
2021/09/11 04:52:07;;;;;;;11.13;10.02;;;17.30;99.90;;;;;;5030656;28;20104;-76
2021/09/11 04:54:33;;;;;;;12.43;10.68;;;17.40;99.90;;;;;;5036328;28;20483;-73
2021/09/11 04:56:59;;;;;;;10.95;9.85;;;17.40;99.90;;;;;;5052069;28;20033;-73
2021/09/11 04:59:25;;;;;;;11.50;9.80;;;17.40;99.90;;;;;;5052023;28;20027;-73
2021/09/11 05:01:52;;;;;;;10.80;9.77;;;17.30;99.90;;;;;;5041472;28;20022;-74
2021/09/11 05:04:17;;;;;;;10.93;9.93;;;17.20;99.90;;;;;;5038843;28;20403;-73
2021/09/11 05:06:43;;;;;;;10.27;8.75;;;17.20;99.90;;;;;;5034940;28;20022;-72
2021/09/11 05:09:09;;;;;;;10.35;9.43;;;17.10;99.90;;;;;;5035126;28;20049;-73
2021/09/11 05:11:35;;;;;;;10.25;9.32;;;17.00;99.90;;;;;;5035433;28;20025;-75
2021/09/11 05:14:01;;;;;;;10.52;9.50;;;17.00;99.90;;;;;;5033362;28;20443;-73
2021/09/11 05:16:26;;;;;;;10.23;9.32;;;16.90;99.90;;;;;;5032707;28;20383;-73
2021/09/11 05:18:52;;;;;;;10.30;9.38;;;16.80;99.90;;;;;;5034054;28;20063;-74
2021/09/11 05:21:18;;;;;;;10.65;9.65;;;16.80;99.90;;;;;;5041855;28;20029;-76
2021/09/11 05:23:43;;;;;;;9.88;8.98;;;17.00;99.90;;;;;;5054034;28;20036;-73
2021/09/11 05:26:09;;;;;;;9.88;8.88;;;17.00;99.90;;;;;;5052987;28;20108;-75
2021/09/11 05:28:35;;;;;;;10.18;9.23;;;17.10;99.90;;;;;;5054259;28;20056;-75
2021/09/11 05:31:00;;;;;;;11.07;10.00;;;17.20;99.90;;;;;;5054116;28;20025;-75
2021/09/11 05:33:26;;;;;;;10.98;10.02;;;17.20;99.90;;;;;;5054201;28;20055;-74
2021/09/11 05:35:52;;;;;;;11.50;10.32;;;17.20;99.90;;;;;;5052444;28;20644;-74
2021/09/11 05:38:18;;;;;;;10.68;9.57;;;17.20;99.90;;;;;;5056710;28;20029;-75
2021/09/11 05:40:44;;;;;;;10.40;8.80;;;17.20;99.90;;;;;;5068348;28;20025;-75
2021/09/11 05:43:09;;;;;;;9.35;8.52;;;17.10;99.90;;;;;;5062806;28;20022;-76
2021/09/11 05:45:35;;;;;;;8.73;7.93;;;17.10;99.90;;;;;;5052765;28;20021;-75
2021/09/11 05:48:01;;;;;;;8.52;7.80;;;17.10;99.90;;;;;;5053834;28;20029;-75
2021/09/11 05:50:26;;;;;;;8.25;7.45;;;17.00;99.90;;;;;;5053742;28;20033;-75
2021/09/11 05:52:52;;;;;;;7.47;6.78;;;17.10;99.90;;;;;;5054298;28;20462;-74
2021/09/11 05:55:18;;;;;;;7.80;7.00;;;17.10;99.90;;;;;;5052333;28;20033;-74
2021/09/11 05:57:44;;;;;;;8.82;6.95;;;17.10;99.90;;;;;;5053363;28;20024;-74
2021/09/11 06:00:10;;;;;;;9.40;7.10;;;17.10;99.90;;;;;;5051883;28;20115;-75
2021/09/11 06:02:36;;;;;;;7.60;6.90;;;17.20;99.90;;;;;;5071094;28;20083;-76
2021/09/11 06:05:01;;;;;;;9.13;8.20;;;17.20;99.90;;;;;;5040453;28;20029;-76
2021/09/11 06:07:27;;;;;;;8.57;7.80;;;17.30;99.90;;;;;;5046303;28;20030;-76
2021/09/11 06:09:53;;;;;;;8.38;7.15;;;17.40;99.90;;;;;;5033591;28;20053;-75
2021/09/11 06:12:18;;;;;;;7.78;7.05;;;17.40;99.90;;;;;;5031929;28;20032;-75
2021/09/11 06:14:44;;;;;;;8.57;7.40;;;17.30;99.90;;;;;;5034241;28;20025;-74
2021/09/11 06:17:10;;;;;;;7.90;6.85;;;17.40;99.90;;;;;;5032938;28;20049;-74
2021/09/11 06:19:36;;;;;;;7.05;6.45;;;17.30;99.90;;;;;;5033471;28;20052;-74
2021/09/11 06:22:03;;;;;;;8.50;7.70;;;17.40;99.90;;;;;;5033566;28;20029;-74
2021/09/11 06:24:29;;;;;;;8.25;7.22;;;17.60;99.90;;;;;;5033194;28;20079;-74
2021/09/11 06:26:55;;;;;;;7.15;6.55;;;17.60;99.90;;;;;;5033313;28;20021;-74
2021/09/11 06:29:21;;;;;;;7.78;7.07;;;17.70;99.90;;;;;;5033167;28;20109;-74
2021/09/11 06:31:47;;;;;;;11.45;7.28;;;17.80;99.90;;;;;;5033081;28;20030;-74
2021/09/11 06:34:13;;;;;;;7.82;7.13;;;18.00;99.90;;;;;;5031740;28;20025;-74
2021/09/11 06:36:39;;;;;;;9.25;6.70;;;18.10;99.90;;;;;;5048616;28;20055;-74
2021/09/11 06:39:04;;;;;;;6.35;5.85;;;18.20;99.90;;;;;;5052769;28;20029;-74
2021/09/11 06:41:30;;;;;;;6.35;5.75;;;18.30;99.90;;;;;;5053066;28;20036;-74
2021/09/11 06:43:56;;;;;;;5.88;5.38;;;18.40;99.90;;;;;;5052804;28;20044;-74
2021/09/11 06:46:21;;;;;;;6.88;5.70;;;18.50;99.90;;;;;;5052016;28;20029;-74
2021/09/11 06:48:47;;;;;;;5.97;5.40;;;18.50;99.90;;;;;;5052644;28;20025;-74
2021/09/11 06:51:14;;;;;;;5.22;4.82;;;18.50;99.90;;;;;;5052376;28;20092;-75
2021/09/11 06:53:40;;;;;;;5.22;4.82;;;18.50;99.90;;;;;;5052618;28;20098;-75
2021/09/11 06:56:05;;;;;;;5.68;5.20;;;18.50;99.90;;;;;;5051764;28;20483;-74
2021/09/11 06:58:31;;;;;;;5.78;5.28;;;18.50;99.90;;;;;;5052242;28;20024;-74
2021/09/11 07:00:57;;;;;;;4.97;4.55;;;18.60;99.90;;;;;;5051848;28;20082;-74
2021/09/11 07:03:23;;;;;;;4.50;4.10;;;18.30;99.90;;;;;;5052428;28;20471;-76
2021/09/11 07:05:48;;;;;;;5.10;4.70;;;18.10;99.90;;;;;;5051007;28;20017;-73
2021/09/11 07:08:14;;;;;;;4.53;4.13;;;18.40;99.90;;;;;;5050809;28;20025;-73
2021/09/11 07:10:42;;;;;;;5.13;4.63;;;18.60;99.90;;;;;;5052174;28;20033;-76
2021/09/11 07:13:08;;;;;;;7.28;5.20;;;18.70;99.90;;;;;;5052204;28;20041;-73
2021/09/11 07:15:34;;;;;;;4.60;4.18;;;18.90;99.90;;;;;;5051242;28;20101;-76
2021/09/11 07:17:59;;;;;;;4.97;4.15;;;18.80;99.90;;;;;;5050794;28;20078;-75
2021/09/11 07:20:26;;;;;;;6.68;4.90;;;19.00;99.90;;;;;;5051814;28;20047;-73
2021/09/11 07:22:52;;;;;;;5.60;5.20;;;19.00;99.90;;;;;;5051572;28;20024;-74
2021/09/11 07:25:17;;;;;;;5.28;4.78;;;18.90;99.90;;;;;;5050370;28;20025;-73
2021/09/11 07:27:43;;;;;;;5.60;5.05;;;18.90;99.90;;;;;;5051997;28;20087;-74
2021/09/11 07:30:09;;;;;;;5.32;4.93;;;18.60;99.90;;;;;;5051604;28;20033;-73
2021/09/11 07:32:35;;;;;;;5.07;4.68;;;18.40;99.90;;;;;;5050445;28;20032;-74
2021/09/11 07:35:01;;;;;;;4.63;4.10;;;18.30;99.90;;;;;;5050878;28;20028;-72
2021/09/11 07:37:26;;;;;;;5.63;5.20;;;18.50;99.90;;;;;;5116208;22;20041;-77
2021/09/11 07:39:52;;;;;;;5.70;4.65;;;18.60;99.90;;;;;;5040646;28;20029;-75
2021/09/11 07:42:18;;;;;;;5.38;4.88;;;18.60;99.90;;;;;;5033513;28;20049;-76
2021/09/11 07:44:44;;;;;;;5.63;5.07;;;18.90;99.90;;;;;;5035127;28;20032;-78
2021/09/11 07:47:10;;;;;;;5.45;5.00;;;19.00;99.90;;;;;;5034198;28;20017;-77
2021/09/11 07:49:36;;;;;;;5.53;5.03;;;19.20;99.90;;;;;;5033843;28;20557;-79
2021/09/11 07:52:02;;;;;;;5.47;5.07;;;19.30;99.90;;;;;;5034074;28;20558;-79
2021/09/11 07:54:27;;;;;;;5.75;5.28;;;19.50;99.90;;;;;;5034948;28;20507;-79
2021/09/11 07:56:53;;;;;;;6.03;5.15;;;19.80;99.90;;;;;;5033959;28;20032;-78
2021/09/11 07:59:18;;;;;;;4.97;4.32;;;19.90;99.90;;;;;;5036740;28;20029;-79
2021/09/11 08:01:44;;;;;;;5.40;4.55;;;20.00;99.90;;;;;;5038518;28;20099;-79
2021/09/11 08:04:10;;;;;;;4.78;4.38;;;19.60;99.90;;;;;;5046672;28;20009;-78
2021/09/11 08:06:36;;;;;;;6.15;3.65;;;20.00;99.90;;;;;;5052027;28;20053;-79
2021/09/11 08:09:01;;;;;;;4.15;3.65;;;20.50;99.90;;;;;;5071571;28;20054;-78
2021/09/11 08:11:27;;;;;;;5.20;3.60;;;20.40;99.90;;;;;;5053800;28;20032;-78
2021/09/11 08:13:53;;;;;;;3.75;3.45;;;20.50;99.90;;;;;;5053078;28;20391;-77
2021/09/11 08:16:19;;;;;;;3.25;3.00;;;21.20;99.90;;;;;;5052846;28;20024;-80
2021/09/11 08:18:45;;;;;;;2.95;2.75;;;21.20;99.90;;;;;;5037497;28;20368;-81
2021/09/11 08:21:11;;;;;;;4.78;3.13;;;21.40;99.90;;;;;;5035758;28;20052;-79
2021/09/11 08:23:36;;;;;;;3.53;3.20;;;21.50;99.90;;;;;;5037572;28;20414;-78
2021/09/11 08:26:04;;;;;;;3.35;3.05;;;21.70;99.90;;;;;;5037285;28;20383;-78
2021/09/11 08:28:30;;;;;;;4.07;3.25;;;21.40;99.90;;;;;;5037356;28;20550;-80
2021/09/11 08:30:56;;;;;;;3.13;2.78;;;21.50;99.90;;;;;;5036518;28;20407;-81
2021/09/11 08:33:21;;;;;;;3.05;2.85;;;21.70;99.90;;;;;;5034542;28;20033;-81
2021/09/11 08:35:47;;;;;;;3.20;2.95;;;22.50;99.90;;;;;;5038286;28;20112;-84
2021/09/11 08:38:13;;;;;;;2.90;2.70;;;22.50;99.90;;;;;;5059017;28;20025;-81
2021/09/11 08:40:40;;;;;;;3.00;2.80;;;22.20;99.90;;;;;;5062278;28;20083;-80
2021/09/11 08:43:06;;;;;;;3.60;2.83;;;22.60;99.90;;;;;;5061665;28;20033;-77
2021/09/11 08:45:32;;;;;;;5.03;3.40;;;23.20;99.90;;;;;;5059569;28;20028;-76
2021/09/11 08:47:58;;;;;;;3.45;3.00;;;23.70;99.90;;;;;;5058244;28;20029;-76
2021/09/11 08:50:24;;;;;;;4.25;3.20;;;23.50;99.90;;;;;;5040785;28;20068;-77
2021/09/11 08:52:51;;;;;;;2.80;2.60;;;22.90;99.90;;;;;;5047811;28;20028;-77
2021/09/11 08:55:18;;;;;;;3.63;3.30;;;22.80;99.90;;;;;;5053871;28;20108;-77
2021/09/11 08:58:04;;;;;;;3.35;3.05;;;22.10;99.90;;;;;;5055366;28;20136;-77
2021/09/11 09:00:47;;;;;;;6.30;3.25;;;21.90;99.90;;;;;;5055553;28;20025;-77
2021/09/11 09:03:37;;;;;;;4.22;3.60;;;22.00;99.90;;;;;;5055510;28;20025;-77
2021/09/11 09:06:18;;;;;;;3.15;2.92;;;22.50;99.90;;;;;;5054101;28;20028;-77
2021/09/11 09:08:45;;;;;;;3.67;2.83;;;22.50;99.90;;;;;;5054999;28;20021;-77
2021/09/11 09:11:20;;;;;;;3.22;2.78;;;22.90;99.90;;;;;;5054693;28;20497;-78
2021/09/11 09:13:51;;;;;;;3.45;2.90;;;23.20;99.90;;;;;;5056409;28;20021;-76
2021/09/11 09:16:16;;;;;;;2.88;2.67;;;22.90;99.90;;;;;;5054837;28;20425;-78
2021/09/11 09:18:42;;;;;;;5.05;3.30;;;22.80;99.90;;;;;;5055487;28;20025;-78
2021/09/11 09:21:19;;;;;;;3.20;3.00;;;23.00;99.90;;;;;;5055172;28;20032;-78
2021/09/11 09:23:50;;;;;;;4.10;2.80;;;23.10;99.90;;;;;;5055613;28;20056;-77
2021/09/11 09:26:16;;;;;;;3.20;2.90;;;23.00;99.90;;;;;;5053944;28;20060;-77
2021/09/11 09:29:04;;;;;;;3.63;3.33;;;23.40;99.90;;;;;;5055330;28;20639;-77
2021/09/11 09:31:30;;;;;;;3.55;3.05;;;23.90;99.90;;;;;;5055312;28;20024;-77
2021/09/11 09:33:56;;;;;;;3.00;2.80;;;24.40;99.90;;;;;;5055598;28;20057;-78
2021/09/11 09:36:21;;;;;;;2.92;2.65;;;24.30;99.90;;;;;;5054573;28;20033;-78
2021/09/11 09:38:58;;;;;;;3.60;3.30;;;24.60;99.90;;;;;;5055393;28;20029;-78
2021/09/11 09:41:24;;;;;;;3.90;3.60;;;23.70;99.90;;;;;;5055409;28;20025;-77
2021/09/11 09:43:51;;;;;;;4.28;3.20;;;23.10;99.90;;;;;;5050229;28;20079;-79
2021/09/11 09:46:19;;;;;;;4.47;3.70;;;23.80;99.90;;;;;;5041588;28;20021;-77
2021/09/11 09:48:48;;;;;;;3.03;2.60;;;23.60;99.90;;;;;;5053078;28;20021;-78
2021/09/11 09:51:19;;;;;;;5.68;3.30;;;23.30;99.90;;;;;;5034507;28;20033;-77
2021/09/11 09:53:48;;;;;;;3.95;3.30;;;24.00;99.90;;;;;;5034949;28;20451;-78
2021/09/11 09:56:15;;;;;;;3.08;2.83;;;24.00;99.90;;;;;;5034356;28;20021;-78
2021/09/11 09:58:41;;;;;;;5.63;3.05;;;24.00;99.90;;;;;;5034965;28;20487;-77
2021/09/11 10:01:07;;;;;;;2.70;2.50;;;23.90;99.90;;;;;;5034563;28;20036;-76
2021/09/11 10:03:33;;;;;;;3.47;2.72;;;24.30;99.90;;;;;;5033992;28;20022;-76
2021/09/11 10:06:05;;;;;;;3.08;2.85;;;24.80;99.90;;;;;;5036070;28;20049;-76
2021/09/11 10:08:36;;;;;;;2.50;2.25;;;25.20;99.90;;;;;;5054248;28;20025;-76
2021/09/11 10:11:09;;;;;;;2.72;2.40;;;25.00;99.90;;;;;;5054343;28;20032;-76
2021/09/11 10:13:36;;;;;;;2.50;2.30;;;24.60;99.90;;;;;;5053354;28;20028;-76
2021/09/11 10:16:10;;;;;;;3.85;2.50;;;26.40;99.90;;;;;;5052621;28;20035;-76
2021/09/11 10:18:35;;;;;;;1.90;1.80;;;26.70;99.90;;;;;;5053742;28;20029;-76
2021/09/11 10:21:22;;;;;;;2.28;2.08;;;26.80;99.90;;;;;;5053697;28;20083;-76
2021/09/11 10:23:56;;;;;;;3.40;1.90;;;27.00;99.90;;;;;;5053381;28;20071;-75
2021/09/11 10:26:50;;;;;;;2.55;1.70;;;27.50;99.90;;;;;;5052597;28;20017;-76
2021/09/11 10:29:45;;;;;;;2.13;1.42;;;27.50;99.90;;;;;;5037319;28;20037;-76
2021/09/11 10:32:11;;;;;;;1.38;1.27;;;28.20;99.90;;;;;;5052938;28;20025;-76
2021/09/11 10:35:10;;;;;;;1.40;1.20;;;28.40;99.90;;;;;;5052062;28;20526;-76
2021/09/11 10:37:47;;;;;;;1.98;1.67;;;29.80;99.90;;;;;;5052994;28;20043;-75
2021/09/11 10:40:18;;;;;;;3.17;1.52;;;31.90;98.00;;;;;;5053283;28;20071;-75
2021/09/11 10:43:09;;;;;;;1.10;1.10;;;31.70;95.70;;;;;;5052874;28;20024;-77
2021/09/11 10:45:41;;;;;;;2.13;1.50;;;31.40;95.90;;;;;;5052828;28;20032;-78
2021/09/11 10:48:45;;;;;;;2.05;1.42;;;31.70;95.50;;;;;;5053938;28;20048;-79
2021/09/11 10:51:23;;;;;;;2.38;1.38;;;29.90;95.00;;;;;;5054789;28;20471;-78
2021/09/11 10:54:10;;;;;;;1.25;1.15;;;29.00;96.80;;;;;;5053794;28;20032;-78
2021/09/11 10:56:46;;;;;;;1.60;1.50;;;28.90;97.40;;;;;;5053366;28;20032;-78
2021/09/11 10:59:21;;;;;;;1.50;1.40;;;28.00;98.70;;;;;;5053811;28;20395;-78
2021/09/11 11:01:53;;;;;;;1.60;1.50;;;27.50;99.30;;;;;;5052782;28;20028;-78
2021/09/11 11:04:34;;;;;;;2.35;1.50;;;27.60;99.50;;;;;;5053817;28;20028;-78
2021/09/11 11:07:02;;;;;;;1.60;1.50;;;26.50;99.90;;;;;;5053899;28;20079;-78
2021/09/11 11:09:32;;;;;;;3.03;1.88;;;26.50;99.90;;;;;;5053846;28;20048;-78
2021/09/11 11:11:58;;;;;;;1.80;1.65;;;26.60;99.90;;;;;;5055255;28;20029;-77
2021/09/11 11:14:23;;;;;;;1.45;1.33;;;26.50;99.90;;;;;;5053460;28;20025;-77
2021/09/11 11:16:50;;;;;;;5.22;2.15;;;26.50;99.90;;;;;;5053554;28;20029;-78
2021/09/11 11:19:31;;;;;;;2.33;1.80;;;26.30;99.90;;;;;;5053505;28;20021;-78
2021/09/11 11:22:18;;;;;;;2.00;1.88;;;26.10;99.90;;;;;;5053783;28;20025;-78
2021/09/11 11:24:47;;;;;;;2.70;1.70;;;26.10;99.90;;;;;;5053435;28;20398;-78
2021/09/11 11:27:18;;;;;;;1.85;1.75;;;26.60;99.90;;;;;;5053983;28;20044;-78
2021/09/11 11:29:45;;;;;;;2.17;1.98;;;27.40;99.90;;;;;;5054401;28;20022;-78
2021/09/11 11:32:11;;;;;;;2.22;2.03;;;27.50;99.90;;;;;;5054255;28;20478;-78
2021/09/11 11:34:38;;;;;;;1.80;1.70;;;26.50;99.90;;;;;;5053951;28;20061;-77
2021/09/11 11:37:06;;;;;;;2.50;1.80;;;26.20;99.90;;;;;;5052982;28;20033;-77
2021/09/11 11:39:34;;;;;;;1.88;1.73;;;25.60;99.90;;;;;;5053558;28;20033;-76
2021/09/11 11:42:04;;;;;;;1.58;1.48;;;24.60;99.90;;;;;;5054003;28;20056;-77
2021/09/11 11:44:32;;;;;;;1.67;1.50;;;24.60;99.90;;;;;;5052675;28;20032;-77
2021/09/11 11:47:03;;;;;;;1.13;1.02;;;24.20;99.90;;;;;;5053011;28;20052;-78
2021/09/11 11:49:37;;;;;;;1.50;1.40;;;24.00;99.90;;;;;;5052005;28;20134;-78
2021/09/11 11:52:05;;;;;;;1.08;1.00;;;24.00;99.90;;;;;;5050506;28;20029;-79
2021/09/11 11:54:34;;;;;;;1.30;1.00;;;23.80;99.90;;;;;;5053031;28;20033;-78
2021/09/11 11:57:07;;;;;;;1.02;0.93;;;23.50;99.90;;;;;;5053675;28;20366;-76
2021/09/11 11:59:33;;;;;;;1.77;1.30;;;23.60;99.90;;;;;;5050970;28;20029;-77
2021/09/11 12:01:58;;;;;;;2.50;1.40;;;23.20;99.90;;;;;;5051939;28;20028;-78
2021/09/11 12:04:24;;;;;;;1.30;0.98;;;23.20;99.90;;;;;;5051642;28;20415;-77
2021/09/11 12:06:52;;;;;;;1.98;1.50;;;23.10;99.90;;;;;;5052017;28;20014;-77
2021/09/11 12:09:19;;;;;;;2.00;1.30;;;22.80;99.90;;;;;;5052257;28;20035;-77
2021/09/11 12:11:48;;;;;;;2.38;1.20;;;22.50;99.90;;;;;;5053073;28;20025;-77
2021/09/11 12:14:15;;;;;;;2.50;1.02;;;22.40;99.90;;;;;;5053213;28;20032;-78
2021/09/11 12:16:44;;;;;;;1.27;1.10;;;22.30;99.90;;;;;;5052407;28;20066;-77
2021/09/11 12:19:18;;;;;;;1.98;1.17;;;22.50;99.90;;;;;;5056485;28;20025;-82
2021/09/11 12:21:46;;;;;;;1.50;1.40;;;22.40;99.90;;;;;;5060814;28;20106;-82
2021/09/11 12:24:28;;;;;;;1.77;1.27;;;22.20;99.90;;;;;;5061364;28;20061;-81
2021/09/11 12:27:16;;;;;;;1.45;1.02;;;22.20;99.90;;;;;;5057847;28;20048;-81
2021/09/11 12:29:42;;;;;;;1.20;1.20;;;22.30;99.90;;;;;;5060137;28;20033;-80
2021/09/11 12:32:17;;;;;;;1.50;1.20;;;22.60;99.90;;;;;;5071492;28;20077;-81
2021/09/11 12:34:44;;;;;;;1.42;1.27;;;22.80;99.90;;;;;;5060845;28;20059;-80
2021/09/11 12:37:10;;;;;;;1.33;1.15;;;22.80;99.90;;;;;;5056218;28;20403;-80
2021/09/11 12:39:41;;;;;;;1.88;1.77;;;22.70;99.90;;;;;;5054158;28;20033;-80
2021/09/11 12:42:12;;;;;;;1.38;1.27;;;23.00;99.90;;;;;;5058918;28;20029;-80